Terminal Aerodrome Forecast
Issued by NWS Buffalo, NY

Home | Current Version | Previous Version | Text Only | Print | Product List | Glossary On
Versions: 1 2 3 4 5 6 7 8 9 10 11 12 13 14 15 16 17 18 19 20 21 22 23 24 25
332
FTUS41 KBUF 042339
TAFROC
TAF
KROC 042339Z 0500/0524 07008KT P6SM BKN080
     FM050400 VRB03KT P6SM SCT080 BKN200
     FM050800 09004KT P6SM SCT008 BKN100
     FM051400 06012KT P6SM BKN040
     FM052000 02012KT P6SM BKN040=

USA.gov is the U.S. government's official web portal to all federal, state and local government web resources and services.